Time;durP1;ratioP1;P1;durP2;ratioP2;P2;SDS_P1;SDS_P2;PMS_P1;PMS_P2;Temp;Humidity;BMP_temperature;BMP_pressure;BME280_temperature;BME280_humidity;BME280_pressure;Samples;Min_cycle;Max_cycle;Signal;HPM_P1;HPM_P2
2022/04/09 00:00:15;;;;;;;;;8.25;8.25;;;;;4.26;100.00;100172.59;5057747;28;45559;-70
2022/04/09 00:02:41;;;;;;;;;11.25;11.25;;;;;4.28;100.00;100172.56;5057057;28;45258;-67
2022/04/09 00:05:07;;;;;;;;;13.50;12.50;;;;;4.30;100.00;100176.00;5051526;28;45247;-67
2022/04/09 00:07:33;;;;;;;;;10.75;10.75;;;;;4.31;100.00;100182.94;5057722;28;45224;-67
2022/04/09 00:09:58;;;;;;;;;12.00;12.00;;;;;4.31;100.00;100186.38;5067385;28;45414;-69
2022/04/09 00:12:23;;;;;;;;;10.25;9.75;;;;;4.31;100.00;100181.16;5077746;27;46190;-68
2022/04/09 00:14:49;;;;;;;;;12.75;11.75;;;;;4.30;100.00;100194.22;5062477;28;45316;-68
2022/04/09 00:17:14;;;;;;;;;15.00;13.00;;;;;4.29;100.00;100185.56;5039482;28;45355;-65
2022/04/09 00:19:40;;;;;;;;;13.50;12.50;;;;;4.34;100.00;100188.06;5057324;28;45388;-66
2022/04/09 00:22:05;;;;;;;;;17.00;15.25;;;;;4.38;100.00;100192.31;5057185;28;45462;-66
2022/04/09 00:24:30;;;;;;;;;19.75;15.00;;;;;4.41;100.00;100197.47;5057852;28;45316;-66
2022/04/09 00:26:56;;;;;;;;;15.00;13.00;;;;;4.45;100.00;100193.91;5057825;28;45701;-66
2022/04/09 00:29:21;;;;;;;;;12.50;11.00;;;;;4.45;100.00;100191.31;5057690;28;45650;-65
2022/04/09 00:31:47;;;;;;;;;13.00;11.25;;;;;4.44;100.00;100204.34;5057065;28;46048;-65
2022/04/09 00:34:12;;;;;;;;;7.00;6.75;;;;;4.46;100.00;100208.66;5057219;28;45478;-66
2022/04/09 00:36:38;;;;;;;;;12.75;11.50;;;;;4.50;100.00;100210.31;5056991;28;45435;-66
2022/04/09 00:39:03;;;;;;;;;14.75;12.00;;;;;4.51;100.00;100216.34;5039211;28;45630;-67
2022/04/09 00:41:29;;;;;;;;;10.50;9.00;;;;;4.50;100.00;100218.13;5055723;28;47465;-67
2022/04/09 00:43:54;;;;;;;;;11.75;10.00;;;;;4.46;100.00;100206.03;5055819;28;45329;-67
2022/04/09 00:46:20;;;;;;;;;8.00;6.50;;;;;4.47;100.00;100218.19;5056928;28;45395;-66
2022/04/09 00:48:45;;;;;;;;;11.25;11.25;;;;;4.52;100.00;100223.28;5057321;28;45611;-66
2022/04/09 00:51:11;;;;;;;;;11.75;11.00;;;;;4.47;100.00;100222.50;5056741;28;46143;-68
2022/04/09 00:53:41;;;;;;;;;10.00;10.00;;;;;4.51;100.00;100230.25;5057082;28;45391;-67
2022/04/09 00:56:13;;;;;;;;;11.50;11.50;;;;;4.56;100.00;100224.09;5056883;28;45298;-67
2022/04/09 00:58:45;;;;;;;;;8.00;8.00;;;;;4.59;100.00;100224.84;5056910;28;45890;-67
2022/04/09 01:01:11;;;;;;;;;12.00;10.00;;;;;4.61;100.00;100230.06;5056511;28;45331;-67
2022/04/09 01:03:38;;;;;;;;;9.25;9.25;;;;;4.64;100.00;100230.00;5038599;28;45370;-66
2022/04/09 01:06:08;;;;;;;;;11.25;9.00;;;;;4.67;100.00;100232.53;5039018;28;45437;-67
2022/04/09 01:08:33;;;;;;;;;10.00;10.00;;;;;4.70;100.00;100234.19;5057128;28;45537;-67
2022/04/09 01:10:59;;;;;;;;;13.25;10.25;;;;;4.72;100.00;100228.06;5056511;28;46042;-66
2022/04/09 01:13:25;;;;;;;;;14.50;12.00;;;;;4.76;100.00;100229.72;5038619;28;45386;-66
2022/04/09 01:15:50;;;;;;;;;10.00;10.00;;;;;4.74;100.00;100230.63;5057036;28;45424;-67
2022/04/09 01:18:17;;;;;;;;;14.25;11.75;;;;;4.77;100.00;100239.25;5038710;28;45284;-67
2022/04/09 01:20:42;;;;;;;;;12.25;9.75;;;;;4.81;100.00;100247.88;5037998;28;47553;-65
2022/04/09 01:23:08;;;;;;;;;13.75;10.00;;;;;4.81;100.00;100246.13;5056094;28;45373;-66
2022/04/09 01:25:33;;;;;;;;;13.50;11.00;;;;;4.74;100.00;100251.47;5038907;28;45634;-65
2022/04/09 01:27:59;;;;;;;;;11.50;11.50;;;;;4.72;100.00;100248.91;5038442;28;45565;-66
2022/04/09 01:30:25;;;;;;;;;12.75;11.25;;;;;4.72;100.00;100251.53;5054721;28;47395;-67
2022/04/09 01:32:50;;;;;;;;;17.25;13.25;;;;;4.73;100.00;100254.97;5056183;28;45331;-68
2022/04/09 01:35:16;;;;;;;;;12.25;12.25;;;;;4.75;100.00;100254.06;5056464;28;45336;-65
2022/04/09 01:37:42;;;;;;;;;12.50;11.50;;;;;4.78;100.00;100255.75;5056572;28;45565;-66
2022/04/09 01:40:08;;;;;;;;;10.75;10.75;;;;;4.80;100.00;100257.44;5055958;28;46301;-68
2022/04/09 01:42:33;;;;;;;;;13.75;7.00;;;;;4.80;100.00;100267.84;5056454;28;45447;-67
2022/04/09 01:44:58;;;;;;;;;9.50;7.00;;;;;4.81;100.00;100273.94;5056129;28;45744;-67
2022/04/09 01:47:24;;;;;;;;;7.00;7.00;;;;;4.80;100.00;100280.88;5055043;28;45281;-66
2022/04/09 01:49:49;;;;;;;;;8.25;6.25;;;;;4.80;100.00;100287.84;5056086;28;46284;-65
2022/04/09 01:52:14;;;;;;;;;5.50;5.50;;;;;4.76;100.00;100289.66;5055973;28;45233;-66
2022/04/09 01:54:40;;;;;;;;;9.75;7.25;;;;;4.73;100.00;100291.44;5056002;28;45222;-65
2022/04/09 01:57:05;;;;;;;;;6.75;6.75;;;;;4.72;100.00;100298.44;5056425;28;45498;-65
2022/04/09 01:59:31;;;;;;;;;7.75;7.75;;;;;4.68;100.00;100300.22;5055579;28;45344;-66
2022/04/09 02:01:57;;;;;;;;;8.75;7.00;;;;;4.66;100.00;100296.78;5054424;28;45312;-67
2022/04/09 02:04:22;;;;;;;;;7.50;7.50;;;;;4.65;100.00;100292.47;5056248;28;45793;-66
2022/04/09 02:06:48;;;;;;;;;7.75;7.75;;;;;4.66;100.00;100301.16;5056219;28;45310;-66
2022/04/09 02:09:14;;;;;;;;;6.00;6.00;;;;;4.67;100.00;100298.50;5055077;28;47309;-66
2022/04/09 02:11:40;;;;;;;;;7.50;7.50;;;;;4.69;100.00;100303.69;5056140;28;45513;-67
2022/04/09 02:14:09;;;;;;;;;9.00;7.75;;;;;4.69;100.00;100306.31;5056287;28;45550;-67
2022/04/09 02:16:34;;;;;;;;;10.75;8.75;;;;;4.68;100.00;100302.00;5056294;28;45166;-67
2022/04/09 02:19:00;;;;;;;;;9.00;9.00;;;;;4.61;100.00;100303.00;5054382;28;47309;-66
2022/04/09 02:21:25;;;;;;;;;10.00;10.00;;;;;4.58;100.00;100297.84;5055593;28;45184;-65
2022/04/09 02:23:51;;;;;;;;;9.50;9.50;;;;;4.57;100.00;100306.56;5054479;28;45638;-67
2022/04/09 02:26:16;;;;;;;;;12.75;12.75;;;;;4.51;100.00;100303.19;5055847;28;45209;-67
2022/04/09 02:28:41;;;;;;;;;13.75;12.25;;;;;4.49;100.00;100312.78;5037277;28;46620;-65
2022/04/09 02:31:07;;;;;;;;;13.00;11.00;;;;;4.48;100.00;100298.03;5055609;28;45368;-67
2022/04/09 02:33:33;;;;;;;;;12.75;11.75;;;;;4.51;100.00;100300.56;5055508;28;45246;-66
2022/04/09 02:35:58;;;;;;;;;13.25;11.50;;;;;4.51;100.00;100297.09;5055591;28;45212;-66
2022/04/09 02:38:24;;;;;;;;;16.75;15.00;;;;;4.52;100.00;100304.91;5055267;28;45251;-65
2022/04/09 02:40:50;;;;;;;;;11.00;11.00;;;;;4.55;100.00;100308.34;5037224;28;45798;-67
2022/04/09 02:43:15;;;;;;;;;14.75;12.25;;;;;4.52;100.00;100307.50;5055357;28;45379;-66
2022/04/09 02:45:41;;;;;;;;;12.50;11.25;;;;;4.55;100.00;100314.38;5055558;28;45402;-66
2022/04/09 02:48:07;;;;;;;;;16.00;13.00;;;;;4.59;100.00;100325.63;5055638;28;46950;-68
2022/04/09 02:50:32;;;;;;;;;10.25;10.25;;;;;4.59;100.00;100326.47;5055259;28;45422;-66
2022/04/09 02:52:58;;;;;;;;;12.50;12.00;;;;;4.61;100.00;100329.06;5055176;28;45481;-67
2022/04/09 02:55:23;;;;;;;;;14.75;13.75;;;;;4.62;100.00;100330.78;5055667;28;45316;-66
2022/04/09 02:57:50;;;;;;;;;18.00;17.50;;;;;4.65;100.00;100334.16;5054973;28;46148;-66
2022/04/09 03:00:16;;;;;;;;;17.25;15.50;;;;;4.69;100.00;100329.75;5053418;28;45511;-67
2022/04/09 03:02:42;;;;;;;;;15.25;15.00;;;;;4.73;100.00;100334.00;5055189;28;45278;-65
2022/04/09 03:05:09;;;;;;;;;12.75;12.75;;;;;4.77;100.00;100329.59;5055488;28;45605;-66
2022/04/09 03:07:34;;;;;;;;;14.00;10.75;;;;;4.79;100.00;100328.69;5058122;28;45446;-66
2022/04/09 03:09:59;;;;;;;;;11.25;11.25;;;;;4.80;100.00;100342.59;5058309;28;45383;-66
2022/04/09 03:12:25;;;;;;;;;12.25;8.50;;;;;4.79;100.00;100346.91;5058598;28;45328;-65
2022/04/09 03:14:50;;;;;;;;;12.25;12.25;;;;;4.80;100.00;100360.81;5058744;28;45372;-65
2022/04/09 03:17:15;;;;;;;;;11.00;10.00;;;;;4.77;100.00;100366.94;5040275;28;47987;-65
2022/04/09 03:19:41;;;;;;;;;12.50;12.50;;;;;4.74;100.00;100366.13;5040755;28;45322;-66
2022/04/09 03:22:06;;;;;;;;;11.25;11.25;;;;;4.76;100.00;100366.97;5040685;28;45820;-65
2022/04/09 03:24:32;;;;;;;;;14.50;12.25;;;;;4.73;100.00;100365.28;5058809;28;45473;-66
2022/04/09 03:26:57;;;;;;;;;14.50;13.00;;;;;4.71;100.00;100366.19;5058150;28;45340;-67
2022/04/09 03:29:22;;;;;;;;;15.25;12.50;;;;;4.70;100.00;100360.13;5058202;28;45429;-65
2022/04/09 03:31:48;;;;;;;;;18.00;17.75;;;;;4.73;100.00;100370.50;5058117;28;45389;-65
2022/04/09 03:34:13;;;;;;;;;15.25;13.50;;;;;4.74;100.00;100372.22;5058379;28;45583;-66
2022/04/09 03:36:39;;;;;;;;;13.75;13.00;;;;;4.74;100.00;100372.22;5058434;28;45310;-65
2022/04/09 03:39:06;;;;;;;;;13.75;13.75;;;;;4.70;100.00;100377.50;5058291;28;45270;-66
2022/04/09 03:41:31;;;;;;;;;10.00;7.75;;;;;4.68;100.00;100388.81;5058275;28;45418;-66
2022/04/09 03:43:57;;;;;;;;;14.50;13.50;;;;;4.63;100.00;100385.44;5058361;28;45197;-66
2022/04/09 03:46:22;;;;;;;;;18.25;16.00;;;;;4.62;100.00;100390.69;5058116;28;45415;-66
2022/04/09 03:48:48;;;;;;;;;12.00;12.00;;;;;4.59;100.00;100391.59;5056619;28;45252;-65
2022/04/09 03:51:13;;;;;;;;;11.75;11.00;;;;;4.60;100.00;100400.28;5058199;28;45266;-65
2022/04/09 03:53:39;;;;;;;;;11.50;10.75;;;;;4.57;100.00;100413.38;5058472;28;45228;-66
2022/04/09 03:56:05;;;;;;;;;16.25;13.00;;;;;4.50;100.00;100408.25;5057713;28;46080;-65
2022/04/09 03:58:30;;;;;;;;;14.00;11.75;;;;;4.49;100.00;100409.16;5039844;28;45905;-65
2022/04/09 04:00:56;;;;;;;;;12.75;12.75;;;;;4.47;100.00;100399.63;5057794;28;45268;-67
2022/04/09 04:03:22;;;;;;;;;11.75;11.75;;;;;4.47;100.00;100405.72;5058217;28;45514;-66
2022/04/09 04:05:48;;;;;;;;;13.50;13.50;;;;;4.51;100.00;100406.50;5057797;28;46206;-66
2022/04/09 04:08:14;;;;;;;;;10.00;8.00;;;;;4.48;100.00;100411.75;5057970;28;45521;-67
2022/04/09 04:10:40;;;;;;;;;10.00;10.00;;;;;4.48;100.00;100410.03;5058211;28;45169;-65
2022/04/09 04:13:06;;;;;;;;;7.00;7.00;;;;;4.48;100.00;100411.75;5057826;28;45223;-66
2022/04/09 04:15:35;;;;;;;;;8.00;8.00;;;;;4.43;100.00;100409.25;5057507;28;46151;-67
2022/04/09 04:18:00;;;;;;;;;6.50;6.50;;;;;4.37;100.00;100414.56;5055819;28;45394;-67
2022/04/09 04:20:26;;;;;;;;;10.00;8.00;;;;;4.35;100.00;100419.78;5057402;28;45428;-66
2022/04/09 04:22:52;;;;;;;;;9.75;9.00;;;;;4.37;100.00;100419.78;5057579;28;45445;-66
2022/04/09 04:25:18;;;;;;;;;12.50;8.00;;;;;4.37;100.00;100415.41;5057342;28;46102;-65
2022/04/09 04:27:46;;;;;;;;;11.50;11.25;;;;;4.39;100.00;100412.81;5057749;28;45538;-66
2022/04/09 04:30:12;;;;;;;;;12.00;9.25;;;;;4.43;100.00;100405.78;5057675;28;45342;-68
2022/04/09 04:32:38;;;;;;;;;15.75;10.75;;;;;4.44;100.00;100408.38;5057533;28;45283;-65
2022/04/09 04:35:04;;;;;;;;;8.00;8.00;;;;;4.46;100.00;100408.34;5057259;28;45351;-67
2022/04/09 04:37:39;;;;;;;;;8.00;8.00;;;;;4.47;100.00;100404.84;5038921;28;45418;-66
2022/04/09 04:40:06;;;;;;;;;10.00;9.25;;;;;4.50;100.00;100415.19;5055973;28;45350;-66
2022/04/09 04:42:31;;;;;;;;;9.25;9.25;;;;;4.51;100.00;100417.78;5057285;28;45538;-67
2022/04/09 04:44:57;;;;;;;;;10.50;10.50;;;;;4.56;100.00;100414.25;5057157;28;46192;-66
2022/04/09 04:47:22;;;;;;;;;5.75;5.75;;;;;4.58;100.00;100415.06;5057219;28;45342;-66
2022/04/09 04:49:48;;;;;;;;;5.50;5.50;;;;;4.60;100.00;100408.94;5057307;28;45869;-66
2022/04/09 04:52:13;;;;;;;;;6.25;6.00;;;;;4.62;100.00;100408.94;5057409;28;45327;-66
2022/04/09 04:54:38;;;;;;;;;5.75;5.50;;;;;4.63;100.00;100406.28;5056915;28;46311;-65
2022/04/09 04:57:04;;;;;;;;;7.25;5.75;;;;;4.68;100.00;100417.47;5056960;28;45318;-65
2022/04/09 04:59:29;;;;;;;;;6.75;6.75;;;;;4.71;100.00;100423.50;5056879;28;45435;-67
2022/04/09 05:01:54;;;;;;;;;8.00;8.00;;;;;4.74;100.00;100433.88;5057131;28;45220;-67
2022/04/09 05:04:20;;;;;;;;;8.25;7.00;;;;;4.75;100.00;100431.25;5056643;28;46389;-67
2022/04/09 05:06:45;;;;;;;;;12.25;7.00;;;;;4.74;100.00;100429.53;5057007;28;45390;-66
2022/04/09 05:09:13;;;;;;;;;4.50;4.50;;;;;4.75;100.00;100433.00;5056746;28;47934;-66
2022/04/09 05:11:39;;;;;;;;;7.00;7.00;;;;;4.81;100.00;100441.56;5057271;28;45330;-67
2022/04/09 05:14:04;;;;;;;;;6.00;6.00;;;;;4.81;100.00;100438.13;5056729;28;46085;-67
2022/04/09 05:16:30;;;;;;;;;7.75;6.50;;;;;4.87;100.00;100444.94;5038575;28;45485;-65
2022/04/09 05:18:55;;;;;;;;;8.00;7.25;;;;;4.86;100.00;100448.44;5056864;28;45429;-66
2022/04/09 05:21:21;;;;;;;;;8.00;8.00;;;;;4.88;100.00;100439.72;5057116;28;45421;-67
2022/04/09 05:23:46;;;;;;;;;10.25;9.00;;;;;4.88;100.00;100441.44;5057095;28;45988;-66
2022/04/09 05:26:11;;;;;;;;;7.25;7.00;;;;;4.91;100.00;100444.88;5056425;28;45358;-67
2022/04/09 05:28:37;;;;;;;;;10.50;9.00;;;;;4.97;100.00;100441.28;5056045;28;45274;-67
2022/04/09 05:31:04;;;;;;;;;10.75;10.75;;;;;4.97;100.00;100431.72;5056384;28;45355;-66
2022/04/09 05:33:30;;;;;;;;;12.00;10.25;;;;;5.04;100.00;100442.03;5056199;28;46472;-67
2022/04/09 05:35:56;;;;;;;;;16.75;13.50;;;;;5.07;100.00;100439.38;5054506;28;45389;-66
2022/04/09 05:38:22;;;;;;;;;12.00;12.00;;;;;5.06;100.00;100438.50;5055176;28;45271;-66
2022/04/09 05:40:48;;;;;;;;;12.00;11.75;;;;;5.12;100.00;100455.78;5056759;28;45262;-66
2022/04/09 05:43:13;;;;;;;;;11.50;10.25;;;;;5.10;100.00;100453.19;5056580;28;46214;-66
2022/04/09 05:45:39;;;;;;;;;14.75;13.50;;;;;5.10;100.00;100453.19;5056532;28;45352;-67
2022/04/09 05:48:05;;;;;;;;;16.25;14.75;;;;;5.13;100.00;100467.94;5038115;28;45347;-66
2022/04/09 05:50:30;;;;;;;;;12.25;12.25;;;;;5.16;100.00;100461.78;5056470;28;45430;-66
2022/04/09 05:52:55;;;;;;;;;13.25;13.25;;;;;5.18;100.00;100460.88;5055882;28;45387;-67
2022/04/09 05:55:21;;;;;;;;;13.00;13.00;;;;;5.19;100.00;100472.16;5056394;28;45514;-67
2022/04/09 05:57:46;;;;;;;;;16.00;12.00;;;;;5.22;100.00;100475.56;5056551;28;45323;-67
2022/04/09 06:00:14;;;;;;;;;14.25;13.00;;;;;5.23;100.00;100474.69;5056305;28;45506;-67
2022/04/09 06:02:39;;;;;;;;;18.50;17.25;;;;;5.20;100.00;100474.75;5055922;28;45376;-67
2022/04/09 06:05:06;;;;;;;;;18.00;18.00;;;;;5.27;100.00;100478.06;5055841;28;45455;-67
2022/04/09 06:07:32;;;;;;;;;16.50;16.00;;;;;5.31;100.00;100481.50;5056086;28;45296;-67
2022/04/09 06:09:58;;;;;;;;;12.50;10.75;;;;;5.34;100.00;100478.81;5057790;28;45555;-65
2022/04/09 06:12:23;;;;;;;;;14.75;14.75;;;;;5.38;100.00;100478.75;5056317;28;46052;-67
2022/04/09 06:14:49;;;;;;;;;15.50;14.50;;;;;5.43;100.00;100481.25;5038042;28;45419;-67
2022/04/09 06:17:14;;;;;;;;;13.50;13.00;;;;;5.44;100.00;100476.91;5056010;28;45534;-67
2022/04/09 06:19:40;;;;;;;;;17.00;12.00;;;;;5.49;100.00;100482.88;5055907;28;45406;-67
2022/04/09 06:22:05;;;;;;;;;13.25;12.25;;;;;5.49;100.00;100485.47;5037725;28;46019;-66
2022/04/09 06:24:31;;;;;;;;;17.50;11.25;;;;;5.50;100.00;100493.25;5037547;28;45945;-65
2022/04/09 06:26:56;;;;;;;;;14.50;13.25;;;;;5.55;100.00;100503.63;5055683;28;45462;-67
2022/04/09 06:29:22;;;;;;;;;12.25;12.25;;;;;5.58;100.00;100513.13;5054337;28;45507;-66
2022/04/09 06:31:47;;;;;;;;;15.50;15.50;;;;;5.62;100.00;100504.34;5055460;28;45422;-67
2022/04/09 06:34:17;;;;;;;;;19.25;15.25;;;;;5.62;100.00;100510.44;5053933;28;45664;-67
2022/04/09 06:36:42;;;;;;;;;19.25;16.25;;;;;5.64;100.00;100515.59;5054172;28;45241;-67
2022/04/09 06:39:08;;;;;;;;;15.75;14.50;;;;;5.67;100.00;100521.63;5055577;28;45214;-67
2022/04/09 06:41:33;;;;;;;;;18.50;17.00;;;;;5.67;100.00;100523.38;5054041;28;46566;-66
2022/04/09 06:43:59;;;;;;;;;14.75;12.00;;;;;5.64;100.00;100526.91;5055348;28;45231;-66
2022/04/09 06:46:25;;;;;;;;;16.00;16.00;;;;;5.64;100.00;100524.31;5055370;28;45348;-67
2022/04/09 06:48:51;;;;;;;;;15.25;14.00;;;;;5.65;100.00;100530.38;5055898;28;45414;-66
2022/04/09 06:51:16;;;;;;;;;15.50;12.50;;;;;5.64;100.00;100532.13;5055038;28;46577;-67
2022/04/09 06:53:42;;;;;;;;;13.00;13.00;;;;;5.63;100.00;100535.63;5055257;28;45425;-67
2022/04/09 06:56:07;;;;;;;;;15.25;14.00;;;;;5.63;100.00;100529.53;5054919;28;45829;-67
2022/04/09 06:58:34;;;;;;;;;12.00;10.25;;;;;5.62;100.00;100541.75;5055462;28;45430;-67
2022/04/09 07:01:00;;;;;;;;;13.00;12.50;;;;;5.61;100.00;100542.63;5036689;28;47590;-66
2022/04/09 07:03:26;;;;;;;;;13.00;13.00;;;;;5.59;100.00;100553.97;5054659;28;45276;-66
2022/04/09 07:05:51;;;;;;;;;16.00;14.00;;;;;5.56;100.00;100544.47;5055179;28;45321;-66
2022/04/09 07:08:17;;;;;;;;;10.75;10.75;;;;;5.58;100.00;100547.03;5055024;28;45669;-66
2022/04/09 07:10:42;;;;;;;;;12.00;11.25;;;;;5.64;100.00;100558.22;5054975;28;45279;-66
2022/04/09 07:13:08;;;;;;;;;11.25;11.25;;;;;5.63;100.00;100546.06;5036328;28;45345;-67
2022/04/09 07:15:34;;;;;;;;;13.00;12.00;;;;;5.67;100.00;100554.69;5053600;28;45348;-66
2022/04/09 07:18:00;;;;;;;;;15.00;13.25;;;;;5.69;100.00;100556.38;5054882;28;45382;-66
2022/04/09 07:20:25;;;;;;;;;14.25;12.50;;;;;5.73;100.00;100564.16;5054534;28;45440;-66
2022/04/09 07:22:51;;;;;;;;;9.00;7.00;;;;;5.75;100.00;100564.97;5036578;28;45371;-67
2022/04/09 07:25:16;;;;;;;;;17.25;13.75;;;;;5.77;100.00;100561.44;5054707;28;45382;-67
2022/04/09 07:27:47;;;;;;;;;14.75;13.00;;;;;5.80;100.00;100570.97;5054993;28;45599;-66
2022/04/09 07:30:21;;;;;;;;;17.50;14.75;;;;;5.80;100.00;100568.34;5054842;28;46167;-66
2022/04/09 07:32:48;;;;;;;;;19.25;16.75;;;;;5.77;100.00;100564.03;5054365;28;45407;-66
2022/04/09 07:35:14;;;;;;;;;22.50;16.25;;;;;5.81;100.00;100578.75;5036359;28;45297;-65
2022/04/09 07:37:45;;;;;;;;;19.00;16.50;;;;;5.83;100.00;100574.38;5054845;28;45517;-67
2022/04/09 07:40:13;;;;;;;;;17.25;15.00;;;;;5.79;100.00;100561.41;5036512;28;46978;-67
2022/04/09 07:42:40;;;;;;;;;13.25;10.50;;;;;5.88;100.00;100583.88;5055199;28;45435;-65
2022/04/09 07:45:07;;;;;;;;;13.00;13.00;;;;;5.90;100.00;100579.47;5055409;28;45454;-66
2022/04/09 07:47:33;;;;;;;;;19.50;18.25;;;;;5.89;100.00;100580.38;5055702;28;45490;-68
2022/04/09 07:50:00;;;;;;;;;15.00;13.25;;;;;6.00;100.00;100591.44;5036258;28;45920;-65
2022/04/09 07:52:26;;;;;;;;;14.00;14.00;;;;;5.99;100.00;100597.56;5055649;28;45443;-66
2022/04/09 07:54:52;;;;;;;;;15.75;15.75;;;;;6.03;100.00;100590.53;5058324;28;45235;-67
2022/04/09 07:57:17;;;;;;;;;16.25;16.25;;;;;6.09;100.00;100596.50;5058245;28;45187;-67
2022/04/09 07:59:43;;;;;;;;;14.75;14.75;;;;;6.20;100.00;100601.47;5057456;28;45414;-67
2022/04/09 08:02:09;;;;;;;;;21.00;15.25;;;;;6.21;100.00;100597.97;5057613;28;45290;-67
2022/04/09 08:04:34;;;;;;;;;13.00;13.00;;;;;6.19;100.00;100607.59;5039507;28;45347;-67
2022/04/09 08:06:59;;;;;;;;;16.25;14.50;;;;;6.24;100.00;100602.28;5058008;28;45512;-67
2022/04/09 08:09:25;;;;;;;;;13.25;13.25;;;;;6.25;100.00;100601.41;5057569;28;47810;-66
2022/04/09 08:11:50;;;;;;;;;18.75;15.25;;;;;6.24;100.00;100600.53;5057459;28;45445;-67
2022/04/09 08:14:15;;;;;;;;;17.75;14.00;;;;;6.30;100.00;100612.59;5057506;28;45739;-66
2022/04/09 08:16:41;;;;;;;;;11.00;10.50;;;;;6.31;100.00;100601.25;5057630;28;45351;-65
2022/04/09 08:19:07;;;;;;;;;15.75;15.50;;;;;6.41;100.00;100610.59;5057461;28;46060;-68
2022/04/09 08:21:33;;;;;;;;;14.50;12.75;;;;;6.45;100.00;100606.19;5039172;28;45630;-67
2022/04/09 08:23:58;;;;;;;;;14.50;14.00;;;;;6.63;100.00;100612.72;5039214;28;45368;-66
2022/04/09 08:26:24;;;;;;;;;15.75;13.75;;;;;6.72;100.00;100609.06;5058016;28;45568;-67
2022/04/09 08:28:49;;;;;;;;;13.75;13.25;;;;;6.82;100.00;100621.00;5038859;28;45894;-66
2022/04/09 08:31:15;;;;;;;;;15.50;15.50;;;;;7.03;100.00;100617.91;5057048;28;45265;-67
2022/04/09 08:33:42;;;;;;;;;13.00;13.00;;;;;7.22;100.00;100628.75;5055855;28;45330;-67
2022/04/09 08:36:07;;;;;;;;;17.25;16.50;;;;;7.22;100.00;100620.91;5057435;28;45284;-68
2022/04/09 08:38:33;;;;;;;;;13.25;13.25;;;;;7.19;100.00;100628.84;5056916;28;45726;-67
2022/04/09 08:41:03;;;;;;;;;11.50;10.25;;;;;7.12;100.00;100636.00;5057374;28;45404;-67
2022/04/09 08:43:31;;;;;;;;;16.00;16.00;;;;;7.06;100.00;100634.38;5057274;28;45430;-67
2022/04/09 08:46:02;;;;;;;;;15.50;14.50;;;;;7.12;100.00;100639.44;5057486;28;45267;-64
2022/04/09 08:48:28;;;;;;;;;15.00;14.50;;;;;7.19;100.00;100648.03;5057071;28;46105;-67
2022/04/09 08:50:54;;;;;;;;;15.50;15.00;;;;;7.22;100.00;100649.69;5055655;28;45563;-65
2022/04/09 08:53:19;;;;;;;;;17.50;16.00;;;;;7.18;100.00;100658.50;5055501;28;45435;-67
2022/04/09 08:55:46;;;;;;;;;13.25;13.25;;;;;7.10;100.00;100659.56;5037747;28;45425;-65
2022/04/09 08:58:12;;;;;;;;;17.00;15.25;;;;;7.05;100.00;100663.19;5038222;28;47740;-66
2022/04/09 09:00:37;;;;;;;;;17.00;15.50;;;;;7.07;100.00;100657.03;5055666;28;45391;-63
2022/04/09 09:03:04;;;;;;;;;20.00;19.00;;;;;7.12;100.00;100670.00;5037756;28;45486;-65
2022/04/09 09:05:40;;;;;;;;;17.00;15.25;;;;;7.04;100.00;100664.09;5032257;28;45568;-66
2022/04/09 09:08:07;;;;;;;;;16.00;14.00;;;;;6.99;100.00;100672.03;5017262;28;46569;-69
2022/04/09 09:10:33;;;;;;;;;15.00;13.75;;;;;6.91;100.00;100671.38;5048134;28;45596;-67
2022/04/09 09:13:05;;;;;;;;;14.00;12.75;;;;;6.89;100.00;100671.38;5056315;28;45322;-67
2022/04/09 09:15:44;;;;;;;;;13.25;13.25;;;;;6.90;100.00;100677.50;5056302;28;45504;-64
2022/04/09 09:18:24;;;;;;;;;11.75;11.75;;;;;6.75;100.00;100682.19;5056855;28;45323;-68
2022/04/09 09:20:58;;;;;;;;;11.50;9.75;;;;;6.68;99.23;100684.06;5042197;28;45709;-68
2022/04/09 09:23:26;;;;;;;;;12.25;12.25;;;;;6.67;100.00;100681.50;5037400;28;45478;-71
2022/04/09 09:25:54;;;;;;;;;13.50;13.25;;;;;6.72;100.00;100677.88;5026815;28;45682;-65
2022/04/09 09:28:34;;;;;;;;;13.00;13.00;;;;;6.81;100.00;100683.78;5054629;28;46147;-66
2022/04/09 09:31:01;;;;;;;;;14.50;14.50;;;;;6.90;100.00;100682.72;5023575;28;45795;-66
2022/04/09 09:33:27;;;;;;;;;15.50;15.50;;;;;7.06;100.00;100693.69;5022564;28;45323;-68
2022/04/09 09:36:00;;;;;;;;;18.00;16.50;;;;;7.24;100.00;100702.84;5038041;28;45432;-67
2022/04/09 09:38:31;;;;;;;;;12.00;12.00;;;;;7.40;100.00;100701.56;5037585;28;46302;-68
2022/04/09 09:40:57;;;;;;;;;12.50;12.50;;;;;7.54;100.00;100710.84;5055753;28;45370;-68
2022/04/09 09:43:25;;;;;;;;;14.00;14.00;;;;;7.64;100.00;100709.72;5056047;28;45247;-66
2022/04/09 09:45:52;;;;;;;;;12.75;12.75;;;;;7.72;100.00;100715.59;5056363;28;45423;-68
2022/04/09 09:48:28;;;;;;;;;13.00;13.00;;;;;7.79;99.15;100724.13;5055841;28;45361;-66
2022/04/09 09:50:55;;;;;;;;;16.00;15.00;;;;;7.84;99.53;100729.28;5037689;28;45399;-67
2022/04/09 09:53:34;;;;;;;;;12.75;12.75;;;;;7.91;100.00;100730.81;5038119;28;45229;-67
2022/04/09 09:56:02;;;;;;;;;14.00;11.50;;;;;7.99;99.37;100722.78;5054948;28;45506;-67
2022/04/09 09:58:28;;;;;;;;;12.00;12.00;;;;;8.10;98.52;100730.31;5054364;28;46228;-69
2022/04/09 10:00:56;;;;;;;;;7.00;7.00;;;;;8.12;98.30;100733.75;5055539;28;45522;-67
2022/04/09 10:03:23;;;;;;;;;12.00;12.00;;;;;8.24;98.23;100745.69;5055938;28;45376;-67
2022/04/09 10:05:50;;;;;;;;;14.00;10.75;;;;;8.30;97.40;100746.34;5055882;28;45464;-67
2022/04/09 10:08:18;;;;;;;;;11.25;11.25;;;;;8.30;98.05;100753.38;5055499;28;46400;-67
2022/04/09 10:10:48;;;;;;;;;14.75;14.75;;;;;8.27;97.97;100758.69;5055463;28;45522;-68
2022/04/09 10:13:24;;;;;;;;;14.00;13.75;;;;;8.19;97.69;100761.50;5055465;28;45320;-67
2022/04/09 10:15:51;;;;;;;;;13.00;13.00;;;;;8.11;96.64;100759.13;5037707;28;45486;-67
2022/04/09 10:18:23;;;;;;;;;16.50;12.75;;;;;7.99;97.58;100765.53;5055625;28;46158;-68
2022/04/09 10:20:59;;;;;;;;;13.75;13.75;;;;;7.90;97.39;100777.09;5037711;28;45291;-68
2022/04/09 10:23:27;;;;;;;;;14.25;13.00;;;;;7.73;96.95;100774.94;5055639;28;45370;-69
2022/04/09 10:25:53;;;;;;;;;13.25;13.25;;;;;7.57;96.89;100776.22;5055805;28;45515;-69
2022/04/09 10:28:38;;;;;;;;;17.00;17.00;;;;;7.43;98.08;100774.78;5055632;28;46257;-66
2022/04/09 10:31:21;;;;;;;;;11.50;11.50;;;;;7.36;99.49;100773.19;5054358;28;45448;-67
2022/04/09 10:33:54;;;;;;;;;12.00;11.50;;;;;7.30;98.03;100776.81;5055433;28;45421;-66
2022/04/09 10:36:40;;;;;;;;;14.50;12.50;;;;;7.27;99.22;100789.09;5055659;28;45493;-67
2022/04/09 10:42:48;;;;;;;;;13.00;13.00;;;;;7.21;98.80;100797.09;5045930;28;45502;-67
2022/04/09 10:45:13;;;;;;;;;15.00;15.00;;;;;7.20;99.52;100796.25;5055779;28;45323;-68
2022/04/09 10:48:11;;;;;;;;;14.75;12.00;;;;;7.19;98.85;100799.78;5055490;28;45585;-67
2022/04/09 10:51:02;;;;;;;;;14.50;14.50;;;;;7.21;99.22;100799.72;4999873;28;46117;-67
2022/04/09 10:53:30;;;;;;;;;14.50;12.75;;;;;7.29;99.11;100798.66;5037535;28;45249;-68
2022/04/09 10:56:14;;;;;;;;;15.25;15.25;;;;;7.49;98.71;100809.56;5055685;28;45303;-68
2022/04/09 10:58:59;;;;;;;;;20.75;20.25;;;;;7.74;99.03;100802.84;5038634;28;45615;-68
2022/04/09 11:01:51;;;;;;;;;26.00;23.00;;;;;8.08;99.68;100801.13;5038245;28;47745;-68
2022/04/09 11:04:25;;;;;;;;;20.75;20.00;;;;;8.43;99.31;100807.16;5024564;28;45181;-66
2022/04/09 11:07:09;;;;;;;;;22.75;20.00;;;;;8.73;98.71;100809.00;5056401;28;45201;-67
2022/04/09 11:10:03;;;;;;;;;19.50;17.75;;;;;8.93;96.26;100802.31;5038755;28;45280;-65
2022/04/09 11:12:30;;;;;;;;;14.25;14.25;;;;;9.07;94.99;100813.25;5054935;28;46937;-67
2022/04/09 11:15:04;;;;;;;;;14.75;13.25;;;;;9.14;94.04;100819.19;5037325;28;45739;-66
2022/04/09 11:17:35;;;;;;;;;15.00;14.00;;;;;9.26;94.30;100825.81;5054839;28;45440;-67